Time;durP1;ratioP1;P1;durP2;ratioP2;P2;SDS_P1;SDS_P2;PMS_P1;PMS_P2;Temp;Humidity;BMP_temperature;BMP_pressure;BME280_temperature;BME280_humidity;BME280_pressure;Samples;Min_cycle;Max_cycle;Signal;HPM_P1;HPM_P2
2022/05/08 00:01:14;;;;;;;13.63;10.75;;;11.30;1.00;;;12.31;77.21;99538.44;5006190;27;124688;-75
2022/05/08 00:03:43;;;;;;;16.15;10.68;;;11.40;1.00;;;12.26;77.19;99530.44;5041390;27;126232;-75
2022/05/08 00:06:11;;;;;;;17.98;10.88;;;11.30;1.00;;;12.13;78.59;99538.44;5038693;27;129862;-75
2022/05/08 00:08:40;;;;;;;16.92;11.02;;;11.30;1.00;;;12.06;79.77;99538.16;5023580;27;129281;-74
2022/05/08 00:11:15;;;;;;;15.23;10.20;;;11.30;1.00;;;12.16;79.88;99537.03;5039149;27;125843;-74
2022/05/08 00:13:43;;;;;;;16.15;11.82;;;11.30;1.00;;;12.27;79.40;99537.50;5019446;27;124239;-74
2022/05/08 00:16:12;;;;;;;16.13;10.88;;;11.30;1.00;;;12.30;79.18;99537.66;5017029;28;130255;-74
2022/05/08 00:18:41;;;;;;;16.20;11.15;;;11.30;1.00;;;12.33;78.56;99531.56;5002187;28;129659;-75
2022/05/08 00:21:09;;;;;;;16.02;10.75;;;11.30;1.00;;;12.38;78.08;99533.31;5003142;28;124708;-73
2022/05/08 00:23:38;;;;;;;16.10;10.48;;;11.30;1.00;;;12.44;77.27;99532.03;5002338;28;125614;-73
2022/05/08 00:26:08;;;;;;;17.40;11.07;;;11.30;1.00;;;12.52;76.98;99522.25;5020506;28;129907;-74
2022/05/08 00:28:39;;;;;;;15.18;11.13;;;11.30;1.00;;;12.56;77.54;99532.16;4998969;28;129224;-73
2022/05/08 00:31:10;;;;;;;14.93;10.95;;;11.40;1.00;;;12.51;78.08;99532.34;5017551;28;126997;-74
2022/05/08 00:33:40;;;;;;;15.13;10.95;;;11.40;1.00;;;12.47;78.31;99536.81;5003148;28;124675;-74
2022/05/08 00:36:09;;;;;;;15.52;10.65;;;11.50;1.00;;;12.41;79.04;99538.13;5017544;28;129744;-76
2022/05/08 00:38:38;;;;;;;16.92;10.82;;;11.50;1.00;;;12.35;78.74;99532.03;5018044;28;129404;-76
2022/05/08 00:41:08;;;;;;;15.57;10.40;;;11.50;1.00;;;12.35;78.33;99528.50;5002634;28;126207;-73
2022/05/08 00:43:40;;;;;;;13.90;9.80;;;11.50;1.00;;;12.38;78.54;99533.31;5017768;28;126229;-74
2022/05/08 00:46:11;;;;;;;12.73;9.55;;;11.50;1.00;;;12.45;77.99;99540.97;5017776;28;130557;-74
2022/05/08 00:48:41;;;;;;;15.93;10.10;;;11.50;1.00;;;12.47;77.81;99531.38;5035643;27;130453;-74
2022/05/08 00:51:12;;;;;;;13.05;9.75;;;11.50;1.00;;;12.55;77.55;99537.94;5019300;27;126086;-74
2022/05/08 00:53:43;;;;;;;14.10;9.48;;;11.50;1.00;;;12.61;77.46;99531.19;5037169;27;125575;-73
2022/05/08 00:56:14;;;;;;;16.08;9.30;;;11.50;1.00;;;12.64;76.91;99529.75;5004938;27;128933;-73
2022/05/08 00:58:47;;;;;;;14.88;9.27;;;11.50;1.00;;;12.52;77.37;99533.91;5019254;27;129660;-73
2022/05/08 01:01:16;;;;;;;15.95;9.48;;;11.60;1.00;;;12.48;78.38;99527.53;5036802;27;126147;-73
2022/05/08 01:03:45;;;;;;;15.02;9.10;;;11.60;1.00;;;12.39;78.65;99521.31;5016870;27;126489;-74
2022/05/08 01:06:15;;;;;;;13.95;9.05;;;11.60;1.00;;;12.40;78.16;99510.09;5021105;27;128916;-73
2022/05/08 01:08:46;;;;;;;12.45;8.48;;;11.60;1.00;;;12.50;78.10;99517.13;5018628;27;129867;-74
2022/05/08 01:11:15;;;;;;;14.20;9.15;;;11.60;1.00;;;12.54;79.51;99509.09;5037088;27;126173;-75
2022/05/08 01:13:46;;;;;;;12.57;9.20;;;11.60;1.00;;;12.54;78.84;99511.81;5036691;27;126280;-75
2022/05/08 01:16:17;;;;;;;13.55;9.32;;;11.50;1.00;;;12.53;78.78;99502.88;5037014;27;130368;-74
2022/05/08 01:18:49;;;;;;;12.68;8.68;;;11.60;1.00;;;12.54;78.91;99509.91;5036809;27;129484;-75
2022/05/08 01:21:20;;;;;;;12.40;8.50;;;11.50;1.00;;;12.53;79.41;99513.75;5005886;27;125141;-76
2022/05/08 01:23:50;;;;;;;13.15;9.50;;;11.50;1.00;;;12.48;79.60;99505.78;5037691;27;125631;-76
2022/05/08 01:26:23;;;;;;;12.70;8.75;;;11.40;1.00;;;12.33;79.97;99504.34;5036532;27;130704;-76
2022/05/08 01:28:52;;;;;;;13.32;9.00;;;11.40;1.00;;;12.32;80.51;99508.19;5036707;27;129376;-75
2022/05/08 01:31:21;;;;;;;14.48;10.02;;;11.50;1.00;;;12.28;80.88;99515.41;5018132;27;127001;-75
2022/05/08 01:33:49;;;;;;;14.15;9.32;;;11.40;1.00;;;12.22;80.69;99514.75;5021829;27;126951;-76
2022/05/08 01:36:18;;;;;;;14.23;9.60;;;11.30;1.00;;;12.13;81.31;99510.47;5036706;27;130273;-75
2022/05/08 01:38:46;;;;;;;14.75;8.68;;;11.30;1.00;;;12.04;81.59;99515.91;5039306;27;130723;-75
2022/05/08 01:41:16;;;;;;;16.00;8.40;;;11.30;1.00;;;12.08;81.66;99519.59;5036920;27;126226;-75
2022/05/08 01:43:45;;;;;;;13.38;8.15;;;11.40;1.00;;;12.09;81.91;99521.19;5038662;27;125478;-75
2022/05/08 01:46:13;;;;;;;14.63;8.52;;;11.40;1.00;;;12.12;81.66;99520.53;5038754;27;129896;-75
2022/05/08 01:48:40;;;;;;;14.50;9.02;;;11.60;1.00;;;12.10;82.18;99522.78;5041879;27;130306;-75
2022/05/08 01:51:12;;;;;;;14.13;8.50;;;11.60;1.00;;;12.14;81.99;99523.75;5037517;27;126360;-74
2022/05/08 01:53:41;;;;;;;11.85;8.27;;;11.60;1.00;;;12.20;81.68;99518.91;5036842;27;125625;-74
2022/05/08 01:56:09;;;;;;;13.52;8.75;;;11.60;1.00;;;12.22;82.04;99522.13;5036097;27;130327;-74
2022/05/08 01:58:39;;;;;;;12.25;8.43;;;11.60;1.00;;;12.28;82.14;99522.75;5035912;27;129789;-74
2022/05/08 02:01:10;;;;;;;11.43;7.95;;;11.60;1.00;;;12.33;82.36;99519.88;5020864;27;125225;-75
2022/05/08 02:03:40;;;;;;;14.15;9.32;;;11.60;1.00;;;12.31;82.69;99522.09;5021372;27;124346;-74
2022/05/08 02:06:08;;;;;;;12.10;8.52;;;11.60;1.00;;;12.26;82.80;99525.78;5037585;27;130651;-75
2022/05/08 02:08:37;;;;;;;13.98;8.15;;;11.60;1.00;;;12.25;82.88;99521.50;5038743;27;129489;-74
2022/05/08 02:11:06;;;;;;;12.10;8.35;;;11.60;1.00;;;12.28;83.26;99522.75;5020681;27;126254;-76
2022/05/08 02:13:36;;;;;;;12.82;8.20;;;11.60;1.00;;;12.25;83.70;99523.38;5037204;27;124797;-74
2022/05/08 02:16:06;;;;;;;11.90;8.25;;;11.60;1.00;;;12.26;84.34;99522.28;5035653;27;130315;-75
2022/05/08 02:18:35;;;;;;;11.77;8.43;;;11.60;1.00;;;12.22;84.79;99520.19;5036389;27;129894;-75
2022/05/08 02:21:04;;;;;;;12.38;8.70;;;11.60;1.00;;;12.18;85.35;99524.69;5038657;27;126182;-73
2022/05/08 02:23:33;;;;;;;12.63;8.88;;;11.60;1.00;;;12.18;86.20;99523.88;5035829;27;126197;-73
2022/05/08 02:26:01;;;;;;;12.77;8.55;;;11.50;1.00;;;12.28;86.44;99528.19;5035656;27;130465;-75
2022/05/08 02:28:31;;;;;;;12.80;8.70;;;11.50;1.00;;;12.23;87.02;99532.69;5035514;27;130331;-75
2022/05/08 02:31:00;;;;;;;13.27;8.60;;;11.50;1.00;;;12.21;87.56;99532.19;5017864;27;125735;-75
2022/05/08 02:33:30;;;;;;;15.65;8.45;;;11.40;1.00;;;12.23;87.82;99532.69;5005674;27;125184;-74
2022/05/08 02:35:59;;;;;;;12.38;8.27;;;11.40;1.00;;;12.17;88.28;99528.53;5035542;27;130619;-73
2022/05/08 02:38:28;;;;;;;13.20;8.70;;;11.30;1.00;;;12.18;88.96;99530.13;5035879;27;130274;-74
2022/05/08 02:41:01;;;;;;;13.38;9.52;;;11.20;1.00;;;12.14;89.15;99531.91;5035563;27;125623;-74
2022/05/08 02:43:31;;;;;;;11.57;8.15;;;11.20;1.00;;;12.09;89.61;99528.53;5020152;27;125904;-74
2022/05/08 02:46:02;;;;;;;11.93;8.50;;;11.20;1.00;;;12.11;89.78;99532.53;5016666;27;129767;-74
2022/05/08 02:48:32;;;;;;;13.02;9.02;;;11.20;1.00;;;12.17;89.39;99536.69;5019947;27;129917;-77
2022/05/08 02:51:05;;;;;;;14.73;8.63;;;11.20;1.00;;;12.14;89.64;99545.50;5035067;27;125494;-75
2022/05/08 02:53:34;;;;;;;11.82;8.70;;;11.30;1.00;;;12.11;89.73;99535.25;5035365;27;125589;-75
2022/05/08 02:58:51;;;;;;;12.23;8.23;;;11.30;1.00;;;12.17;89.82;99536.69;5019860;27;129594;-74
2022/05/08 03:01:20;;;;;;;12.65;8.65;;;11.30;1.00;;;12.21;89.77;99536.84;5016899;27;125505;-74
2022/05/08 03:03:50;;;;;;;14.85;10.05;;;11.30;1.00;;;12.23;90.43;99538.13;5020489;27;124815;-74
2022/05/08 03:06:20;;;;;;;15.55;9.80;;;11.30;1.00;;;12.27;90.36;99540.22;5037818;27;129886;-74
2022/05/08 03:08:52;;;;;;;13.27;9.48;;;11.20;1.00;;;12.27;90.50;99546.44;5036347;27;128969;-74
2022/05/08 03:11:29;;;;;;;13.23;9.20;;;11.20;1.00;;;12.22;91.04;99547.41;5002762;27;125917;-74
2022/05/08 03:13:59;;;;;;;11.70;8.63;;;11.20;1.00;;;12.26;90.88;99552.22;5002597;27;125833;-75
2022/05/08 03:16:28;;;;;;;14.50;9.30;;;11.30;1.00;;;12.38;90.55;99549.63;5019939;27;129300;-75
2022/05/08 03:18:59;;;;;;;13.35;8.90;;;11.40;1.00;;;12.53;89.77;99549.13;5020313;27;128354;-74
2022/05/08 03:21:29;;;;;;;12.82;9.38;;;11.40;1.00;;;12.62;89.47;99549.13;5020165;27;125223;-75
2022/05/08 03:23:57;;;;;;;13.30;8.45;;;11.50;1.00;;;12.67;89.73;99556.31;5016918;27;125778;-75
2022/05/08 03:26:28;;;;;;;14.57;8.70;;;11.50;1.00;;;12.79;89.73;99556.44;4999306;27;130207;-75
2022/05/08 03:28:58;;;;;;;12.15;8.32;;;11.50;1.00;;;12.73;89.36;99552.28;5005343;27;128195;-76
2022/05/08 03:31:27;;;;;;;15.77;9.57;;;11.50;1.00;;;12.72;88.87;99561.59;5017170;27;126370;-75
2022/05/08 03:33:56;;;;;;;12.43;8.23;;;11.50;1.00;;;12.64;89.75;99567.88;5035108;27;125302;-75
2022/05/08 03:36:26;;;;;;;12.40;8.18;;;11.60;1.00;;;12.64;89.70;99573.31;5036786;27;129767;-74
2022/05/08 03:38:55;;;;;;;14.15;7.75;;;11.50;1.00;;;12.58;90.16;99576.19;5034850;27;129600;-72
2022/05/08 03:41:24;;;;;;;12.18;8.48;;;11.50;1.00;;;12.35;91.56;99572.84;5000636;27;125613;-73
2022/05/08 03:43:53;;;;;;;11.70;7.88;;;11.40;1.00;;;12.28;93.01;99569.00;5037460;27;125550;-74
2022/05/08 03:46:21;;;;;;;13.05;8.45;;;11.30;1.00;;;12.21;93.34;99575.72;5019644;27;129406;-73
2022/05/08 03:48:51;;;;;;;13.40;8.68;;;11.20;1.00;;;12.13;93.92;99576.53;5019251;27;130013;-74
2022/05/08 03:51:20;;;;;;;11.95;8.18;;;11.20;1.00;;;12.15;94.65;99573.50;5037524;27;126604;-74
2022/05/08 03:53:50;;;;;;;14.23;8.93;;;11.20;1.00;;;12.26;94.53;99582.13;5020834;27;124289;-73
2022/05/08 03:56:18;;;;;;;12.18;8.25;;;11.30;1.00;;;12.42;94.17;99583.25;5035304;27;130867;-74
2022/05/08 03:58:47;;;;;;;10.70;7.40;;;11.40;1.00;;;12.55;93.70;99579.56;5019447;27;129382;-74
2022/05/08 04:01:16;;;;;;;12.60;8.20;;;11.50;1.00;;;12.68;93.65;99568.81;5034602;27;127158;-73
2022/05/08 04:03:45;;;;;;;14.27;8.18;;;11.60;1.00;;;12.66;93.83;99577.28;5035773;27;126606;-76
2022/05/08 04:06:14;;;;;;;11.48;7.93;;;11.60;1.00;;;12.63;93.14;99572.50;5035325;27;130726;-74
2022/05/08 04:08:44;;;;;;;14.63;9.57;;;11.40;1.00;;;12.47;94.23;99583.09;5002613;27;128542;-75
2022/05/08 04:11:14;;;;;;;13.15;9.30;;;11.30;1.00;;;12.36;95.05;99585.34;5018274;27;125865;-76
2022/05/08 04:13:44;;;;;;;12.40;8.70;;;11.30;1.00;;;12.34;95.09;99592.22;5007046;27;124558;-76
2022/05/08 04:16:21;;;;;;;16.13;9.52;;;11.30;1.00;;;12.31;95.95;99601.03;5018106;27;129890;-76
2022/05/08 04:18:51;;;;;;;11.40;8.80;;;11.30;1.00;;;12.33;96.10;99596.06;5020684;27;128581;-76
2022/05/08 04:21:20;;;;;;;11.95;8.27;;;11.30;1.00;;;12.41;95.55;99603.44;5017943;27;125985;-76
2022/05/08 04:26:37;;;;;;;12.70;8.13;;;11.50;1.00;;;12.87;94.24;99599.22;5018584;27;130659;-74
2022/05/08 04:29:08;;;;;;;11.27;8.13;;;11.60;1.00;;;12.90;93.68;99604.00;5001422;27;129073;-75
2022/05/08 04:31:36;;;;;;;10.93;8.07;;;11.60;1.00;;;13.01;93.06;99601.75;5018869;27;125595;-75
2022/05/08 04:34:05;;;;;;;11.63;7.78;;;11.60;1.00;;;13.06;92.98;99601.56;5037240;27;125189;-76
2022/05/08 04:36:34;;;;;;;11.88;8.07;;;11.60;1.00;;;13.14;92.92;99602.66;5033817;27;129926;-75
2022/05/08 04:39:03;;;;;;;12.35;8.80;;;11.70;1.00;;;13.10;92.08;99590.78;5036984;27;129520;-74
2022/05/08 04:41:33;;;;;;;11.18;7.85;;;11.60;1.00;;;13.27;91.12;99596.16;5019216;27;125691;-74
2022/05/08 04:44:04;;;;;;;12.25;8.05;;;11.80;1.00;;;13.30;90.95;99598.25;5005957;27;124637;-74
2022/05/08 04:46:34;;;;;;;11.82;8.02;;;11.70;1.00;;;13.35;91.32;99601.94;5019527;27;130659;-75
2022/05/08 04:49:05;;;;;;;13.52;8.48;;;11.80;1.00;;;13.53;89.97;99592.56;5040221;27;129836;-75
2022/05/08 04:51:33;;;;;;;10.60;7.20;;;11.80;1.00;;;13.51;89.69;99602.19;5018742;27;126045;-74
2022/05/08 04:54:02;;;;;;;12.52;8.18;;;11.70;1.00;;;13.43;90.50;99604.66;5021773;27;126147;-75
2022/05/08 04:56:31;;;;;;;11.10;7.90;;;11.80;1.00;;;13.37;90.21;99594.25;5018714;27;129881;-75
2022/05/08 04:58:59;;;;;;;11.15;7.63;;;11.70;1.00;;;13.40;90.26;99599.03;5036856;27;130040;-74
2022/05/08 05:01:30;;;;;;;10.40;7.38;;;11.80;1.00;;;13.31;90.54;99602.56;5037398;27;126167;-75
2022/05/08 05:03:59;;;;;;;13.60;8.57;;;11.70;1.00;;;13.39;90.99;99594.72;5005452;27;125331;-74
2022/05/08 05:06:31;;;;;;;14.40;8.02;;;11.90;1.00;;;13.47;89.86;99600.13;5035488;27;130495;-74
2022/05/08 05:08:59;;;;;;;12.15;7.93;;;11.80;1.00;;;13.35;90.87;99601.94;5037597;27;129761;-74
2022/05/08 05:11:28;;;;;;;9.82;6.95;;;11.90;1.00;;;13.17;91.42;99602.00;5040060;27;125623;-74
2022/05/08 05:13:57;;;;;;;10.45;7.13;;;11.80;1.00;;;13.31;91.24;99602.56;5037050;27;126779;-74
2022/05/08 05:16:26;;;;;;;11.63;7.05;;;12.00;1.00;;;13.39;90.71;99602.91;5039579;27;129975;-73
2022/05/08 05:18:57;;;;;;;9.70;6.72;;;11.90;1.00;;;13.47;90.85;99599.34;5021404;27;129378;-72
2022/05/08 05:21:25;;;;;;;9.43;6.47;;;12.00;1.00;;;13.47;90.80;99599.34;5017607;27;124724;-73
2022/05/08 05:23:54;;;;;;;10.50;7.25;;;12.10;1.00;;;13.50;90.60;99609.59;5021489;27;125770;-74
2022/05/08 05:26:23;;;;;;;11.45;6.90;;;12.10;1.00;;;13.47;90.65;99604.78;5036832;27;130741;-74
2022/05/08 05:28:53;;;;;;;10.30;6.43;;;12.00;1.00;;;13.45;90.50;99601.59;5021010;27;129982;-74
2022/05/08 05:31:22;;;;;;;11.75;6.75;;;11.90;1.00;;;13.40;90.84;99599.03;5021255;27;125437;-74
2022/05/08 05:33:50;;;;;;;11.68;6.90;;;11.90;1.00;;;13.44;90.83;99605.44;5017434;27;125923;-75
2022/05/08 05:36:21;;;;;;;9.70;6.03;;;12.00;1.00;;;13.50;90.44;99604.13;5020882;27;129712;-74
2022/05/08 05:38:50;;;;;;;8.10;5.97;;;12.00;1.00;;;13.44;90.54;99610.91;5017768;27;129628;-73
2022/05/08 05:41:19;;;;;;;9.98;6.53;;;11.90;1.00;;;13.41;90.65;99611.53;5038789;27;127590;-75
2022/05/08 05:43:48;;;;;;;10.25;6.78;;;11.90;1.00;;;13.44;91.24;99610.91;5018008;27;126192;-75
2022/05/08 05:49:04;;;;;;;9.93;6.10;;;12.10;1.00;;;13.65;90.11;99616.41;5016461;28;129272;-76
2022/05/08 05:51:34;;;;;;;8.65;6.38;;;12.20;1.00;;;13.94;88.54;99618.31;5015812;28;125917;-76
2022/05/08 05:54:03;;;;;;;9.40;6.15;;;12.30;1.00;;;14.25;87.23;99617.13;5017656;28;125437;-76
2022/05/08 05:56:32;;;;;;;11.15;5.72;;;12.40;1.00;;;14.55;85.62;99611.56;5014328;28;129814;-77
2022/05/08 05:59:01;;;;;;;8.50;5.78;;;12.60;1.00;;;14.95;84.95;99622.00;5016831;28;130173;-77
2022/05/08 06:01:30;;;;;;;9.93;5.82;;;13.00;1.00;;;15.20;82.93;99611.91;5015986;28;125789;-75
2022/05/08 06:03:59;;;;;;;7.85;5.22;;;13.10;1.00;;;15.48;81.44;99621.41;5017818;28;125331;-76
2022/05/08 06:06:28;;;;;;;9.10;5.43;;;13.10;1.00;;;15.66;80.09;99617.28;5018202;28;129213;-76
2022/05/08 06:08:59;;;;;;;9.50;5.50;;;13.20;1.00;;;15.57;79.32;99624.81;4999553;28;129838;-79
2022/05/08 06:11:30;;;;;;;8.68;5.63;;;12.90;1.00;;;15.55;79.90;99621.59;5018321;28;125303;-77
2022/05/08 06:14:00;;;;;;;6.95;5.00;;;13.30;1.00;;;15.81;79.67;99619.34;5001931;28;125780;-77
2022/05/08 06:16:31;;;;;;;9.52;5.20;;;13.50;1.00;;;15.91;79.06;99617.28;4978046;28;129776;-75
2022/05/08 06:19:01;;;;;;;8.43;5.28;;;13.70;1.00;;;16.06;78.28;99615.78;4991434;28;129182;-76
2022/05/08 06:21:31;;;;;;;7.90;5.10;;;13.80;1.00;;;16.04;77.11;99624.34;5030663;27;126264;-75
2022/05/08 06:24:04;;;;;;;8.10;5.22;;;13.40;1.00;;;15.86;77.16;99621.03;5004763;28;124696;-76
2022/05/08 06:26:34;;;;;;;9.32;5.05;;;13.50;1.00;;;15.88;79.13;99623.44;5016765;28;129800;-75
2022/05/08 06:29:04;;;;;;;10.65;5.78;;;13.70;1.00;;;15.94;78.33;99627.53;5031140;27;130179;-77
2022/05/08 06:31:33;;;;;;;9.35;5.57;;;13.70;1.00;;;16.14;76.19;99621.13;5017867;28;125356;-75
2022/05/08 06:34:02;;;;;;;9.77;5.68;;;13.60;1.00;;;16.07;76.97;99620.13;5013634;28;126230;-76
2022/05/08 06:36:30;;;;;;;10.25;5.78;;;13.40;1.00;;;15.95;76.95;99608.03;5018543;28;129718;-76
2022/05/08 06:39:01;;;;;;;8.38;5.72;;;13.50;1.00;;;16.23;76.44;99618.25;5004714;28;130406;-75
2022/05/08 06:41:30;;;;;;;9.70;5.93;;;13.70;1.00;;;16.50;76.31;99616.69;5002032;28;125955;-75
2022/05/08 06:43:59;;;;;;;9.77;5.63;;;14.00;1.00;;;16.62;74.16;99612.28;5013414;28;127325;-75
2022/05/08 06:46:31;;;;;;;9.63;5.40;;;14.10;1.00;;;16.78;73.76;99621.38;5015474;28;129986;-77
2022/05/08 06:49:00;;;;;;;9.63;5.55;;;14.10;1.00;;;16.90;73.15;99626.00;5030805;27;130671;-76
2022/05/08 06:51:28;;;;;;;8.57;5.63;;;14.00;1.00;;;16.82;72.87;99616.75;5030078;27;125872;-77
2022/05/08 06:53:57;;;;;;;8.70;4.65;;;14.10;1.00;;;16.81;71.56;99628.06;5030194;27;126631;-78
2022/05/08 06:56:30;;;;;;;8.93;5.15;;;13.80;1.00;;;16.83;71.03;99632.06;5021150;27;131041;-76
2022/05/08 07:01:46;;;;;;;9.60;5.47;;;13.40;1.00;;;16.93;70.54;99627.25;5007385;27;125115;-75
2022/05/08 07:04:14;;;;;;;8.63;5.32;;;13.60;1.00;;;17.13;70.06;99637.19;5024604;27;125667;-78
2022/05/08 07:06:43;;;;;;;8.52;5.32;;;14.10;1.00;;;17.53;69.03;99632.66;5036013;27;131082;-77
2022/05/08 07:09:13;;;;;;;7.32;4.88;;;14.50;1.00;;;17.47;69.31;99629.41;5009108;27;129455;-75
2022/05/08 07:11:47;;;;;;;7.93;5.25;;;14.30;1.00;;;17.32;67.82;99630.22;5019054;27;126970;-76
2022/05/08 07:14:19;;;;;;;7.30;5.05;;;14.20;1.00;;;17.23;66.73;99633.13;5011718;27;125228;-77
2022/05/08 07:16:48;;;;;;;8.35;4.80;;;14.00;1.00;;;16.98;67.89;99635.22;5027185;27;130299;-75
2022/05/08 07:19:16;;;;;;;7.90;5.55;;;13.80;1.00;;;17.09;68.36;99641.75;5021469;27;129184;-75
2022/05/08 07:21:45;;;;;;;7.57;5.40;;;13.90;1.00;;;17.13;69.43;99637.19;4996985;28;128023;-75
2022/05/08 07:24:13;;;;;;;8.90;5.78;;;14.20;1.00;;;17.05;69.14;99643.63;5002318;28;125946;-75
2022/05/08 07:26:45;;;;;;;7.78;4.97;;;14.00;1.00;;;17.07;69.77;99650.34;5017078;28;129975;-76
2022/05/08 07:29:14;;;;;;;8.73;5.35;;;14.20;1.00;;;17.69;68.07;99654.63;5015765;28;129554;-74
2022/05/08 07:31:43;;;;;;;7.13;4.85;;;14.60;1.00;;;18.11;66.97;99656.78;4996085;28;125702;-74
2022/05/08 07:36:57;;;;;;;7.53;5.00;;;15.20;1.00;;;18.21;64.16;99655.44;5000851;28;129791;-75
2022/05/08 07:39:26;;;;;;;9.18;5.30;;;14.80;1.00;;;18.13;64.85;99649.78;5014325;27;130301;-74
2022/05/08 07:41:56;;;;;;;7.45;5.35;;;14.80;1.00;;;18.06;64.73;99649.63;5019292;27;125279;-74
2022/05/08 07:44:24;;;;;;;7.60;5.38;;;14.60;1.00;;;17.95;64.06;99654.88;5018841;27;125113;-76
2022/05/08 07:46:53;;;;;;;7.63;4.78;;;14.70;1.00;;;18.18;63.39;99650.66;5034034;27;130385;-76
2022/05/08 07:49:22;;;;;;;9.02;5.40;;;14.90;1.00;;;18.06;63.94;99654.31;5014921;27;130342;-75
2022/05/08 07:51:50;;;;;;;9.35;5.07;;;14.60;1.00;;;17.52;65.03;99648.34;5037929;27;125685;-75
2022/05/08 07:54:19;;;;;;;8.98;5.30;;;14.60;1.00;;;17.15;66.44;99656.81;5002327;27;124367;-77
2022/05/08 07:56:48;;;;;;;6.72;4.60;;;14.60;1.00;;;16.61;67.51;99668.22;5034083;27;130632;-76
2022/05/08 07:59:18;;;;;;;7.78;5.18;;;14.00;1.00;;;16.31;68.81;99663.88;5034315;27;129348;-76
2022/05/08 08:01:46;;;;;;;7.47;5.13;;;13.60;1.00;;;16.05;70.10;99671.66;5034814;27;125852;-73
2022/05/08 08:04:14;;;;;;;7.93;5.88;;;13.40;1.00;;;16.08;71.56;99660.84;5034981;27;125245;-75
2022/05/08 08:06:43;;;;;;;8.40;5.80;;;13.50;1.00;;;16.12;72.75;99659.00;5033493;27;130875;-74
2022/05/08 08:09:12;;;;;;;9.25;5.70;;;13.50;1.00;;;16.05;73.36;99661.53;5033895;27;130525;-76
2022/05/08 08:11:41;;;;;;;8.40;5.75;;;13.50;1.00;;;15.91;73.14;99655.59;5019639;27;124739;-74
2022/05/08 08:14:09;;;;;;;8.05;5.68;;;13.30;1.00;;;16.01;73.85;99666.09;5037980;27;126209;-73
2022/05/08 08:16:39;;;;;;;10.13;5.38;;;13.60;1.00;;;16.06;73.79;99657.63;5023618;27;130062;-73
2022/05/08 08:19:08;;;;;;;7.63;4.80;;;13.50;1.00;;;16.12;73.65;99671.88;5023027;27;129466;-75
2022/05/08 08:21:36;;;;;;;7.68;4.65;;;13.50;1.00;;;16.02;73.30;99672.34;5037420;27;125965;-74
2022/05/08 08:24:06;;;;;;;10.15;5.88;;;13.30;1.00;;;16.12;73.41;99669.94;5022837;27;125665;-74
2022/05/08 08:26:36;;;;;;;8.20;4.97;;;13.40;1.00;;;16.03;72.99;99669.25;5037638;27;129976;-76
2022/05/08 08:29:04;;;;;;;7.30;4.60;;;13.50;1.00;;;16.04;72.46;99673.59;5019651;27;129490;-73
2022/05/08 08:31:33;;;;;;;7.00;4.55;;;13.50;1.00;;;16.22;73.09;99676.09;5037454;27;125933;-75
2022/05/08 08:34:03;;;;;;;7.97;4.30;;;13.70;1.00;;;16.48;71.27;99673.75;5022149;27;125698;-76
2022/05/08 08:36:31;;;;;;;7.70;4.65;;;13.90;1.00;;;16.64;69.62;99679.31;5037134;27;129526;-75
2022/05/08 08:39:01;;;;;;;6.88;4.35;;;13.80;1.00;;;16.73;68.69;99679.13;5018146;27;129531;-76
2022/05/08 08:41:36;;;;;;;6.90;4.55;;;14.10;1.00;;;17.20;67.83;99669.47;5037512;27;125753;-76
2022/05/08 08:49:51;;;;;;;6.82;4.70;;;15.30;1.00;;;18.49;62.95;99671.72;5037222;27;129063;-77
2022/05/08 08:52:23;;;;;;;9.60;4.90;;;15.50;1.00;;;18.13;62.78;99676.44;5019447;27;126245;-75
2022/05/08 08:54:52;;;;;;;7.38;4.82;;;15.10;1.00;;;17.61;63.80;99679.16;5023679;27;124875;-77
2022/05/08 08:57:20;;;;;;;8.23;4.45;;;14.50;1.00;;;17.64;64.66;99683.13;5037124;27;130447;-74
2022/05/08 08:59:49;;;;;;;6.30;4.35;;;14.60;1.00;;;17.85;63.47;99685.59;5018794;27;129618;-74
2022/05/08 09:02:19;;;;;;;13.02;4.63;;;14.80;1.00;;;17.66;63.40;99685.53;5036918;27;126975;-74
2022/05/08 09:04:51;;;;;;;7.32;4.63;;;14.50;1.00;;;17.92;62.97;99688.53;5037141;27;126021;-74
2022/05/08 09:07:40;;;;;;;7.55;4.10;;;14.60;1.00;;;18.08;60.48;99695.97;5021886;27;129808;-73
2022/05/08 09:10:12;;;;;;;7.95;4.80;;;14.70;1.00;;;18.12;60.68;99686.66;5037731;27;129637;-74
2022/05/08 09:12:43;;;;;;;7.18;4.25;;;15.00;1.00;;;18.15;61.91;99685.13;5037492;27;125341;-76
2022/05/08 09:15:24;;;;;;;7.13;4.90;;;15.50;1.00;;;18.44;60.64;99680.25;5037960;27;125972;-74
2022/05/08 09:17:59;;;;;;;8.10;4.43;;;15.70;1.00;;;18.32;60.51;99682.00;5022298;27;129426;-75
2022/05/08 09:20:32;;;;;;;6.18;3.83;;;15.20;1.00;;;18.26;58.45;99691.66;5038375;27;129463;-76
2022/05/08 09:23:14;;;;;;;6.75;4.35;;;15.00;1.00;;;17.85;59.16;99682.84;5020069;27;125383;-73
2022/05/08 09:25:45;;;;;;;7.80;4.22;;;15.00;1.00;;;17.57;59.02;99683.72;5012498;27;125518;-76
2022/05/08 09:28:17;;;;;;;7.88;4.35;;;14.70;1.00;;;17.56;59.01;99682.16;5017325;27;130222;-75
2022/05/08 09:31:01;;;;;;;6.40;4.30;;;14.70;1.00;;;17.06;60.08;99678.09;5037471;27;130263;-75
2022/05/08 09:33:33;;;;;;;6.05;4.00;;;14.50;1.00;;;17.67;60.30;99684.34;5036360;27;125783;-75
2022/05/08 09:36:07;;;;;;;5.07;3.35;;;15.10;1.00;;;18.26;56.90;99680.69;5005689;27;125466;-76
2022/05/08 09:38:59;;;;;;;5.90;3.80;;;15.40;1.00;;;18.45;55.38;99679.91;5022521;27;130519;-76
2022/05/08 09:41:30;;;;;;;6.78;3.65;;;15.30;1.00;;;18.57;55.69;99670.72;4991858;28;128544;-75
2022/05/08 09:44:13;;;;;;;6.57;4.00;;;15.30;1.00;;;18.41;56.01;99664.50;5015616;28;125736;-76
2022/05/08 09:46:44;;;;;;;5.45;3.88;;;15.60;1.00;;;18.67;56.12;99661.91;5014813;28;125536;-74
2022/05/08 09:49:14;;;;;;;7.32;4.10;;;16.10;1.00;;;18.93;55.34;99662.41;5001032;28;129644;-75
2022/05/08 09:51:46;;;;;;;6.07;3.58;;;16.10;1.00;;;18.98;54.17;99660.16;5015693;28;129909;-74
2022/05/08 09:54:16;;;;;;;5.22;3.55;;;15.70;1.00;;;18.85;53.65;99655.97;5015165;28;126568;-76
2022/05/08 09:56:45;;;;;;;5.70;3.05;;;16.00;1.00;;;19.02;54.27;99654.72;5015455;28;126319;-74
2022/05/08 09:59:14;;;;;;;6.25;3.17;;;16.20;1.00;;;19.37;54.27;99649.06;4997701;28;130031;-75
2022/05/08 10:01:44;;;;;;;5.60;3.15;;;16.60;1.00;;;19.58;52.17;99642.31;5015642;28;129779;-75
2022/05/08 10:04:16;;;;;;;4.88;3.00;;;17.00;1.00;;;19.89;51.57;99640.47;4999442;28;125442;-75
2022/05/08 10:06:47;;;;;;;5.50;3.25;;;17.40;1.00;;;19.88;50.49;99647.13;5015844;28;125592;-74
2022/05/08 10:14:50;;;;;;;7.43;3.65;;;16.60;1.00;;;20.20;48.86;99627.53;5015041;28;126688;-75
2022/05/08 10:17:29;;;;;;;5.10;2.90;;;16.60;1.00;;;19.89;49.25;99623.94;5007138;27;126015;-74
2022/05/08 10:19:58;;;;;;;5.00;3.30;;;16.30;1.00;;;19.89;49.14;99613.72;5022479;27;129360;-73
2022/05/08 10:22:48;;;;;;;4.93;2.65;;;17.00;1.00;;;20.11;49.02;99620.31;5021691;27;128404;-73
2022/05/08 10:25:17;;;;;;;6.13;3.05;;;17.40;1.00;;;20.44;48.38;99615.22;5021042;27;124750;-72
2022/05/08 10:28:07;;;;;;;5.18;3.15;;;17.70;1.00;;;19.90;48.96;99611.78;5021090;27;125090;-73
2022/05/08 10:30:40;;;;;;;5.03;2.92;;;17.80;1.00;;;20.29;48.54;99612.28;5036617;27;130257;-75
2022/05/08 10:33:08;;;;;;;4.28;2.47;;;17.50;1.00;;;19.87;47.72;99621.56;5037435;27;129852;-75
2022/05/08 10:35:37;;;;;;;5.22;2.80;;;17.00;1.00;;;19.48;49.04;99616.22;5037244;27;125676;-77
2022/05/08 10:38:24;;;;;;;4.85;2.70;;;16.50;1.00;;;19.73;47.92;99611.09;5037986;27;124758;-78
2022/05/08 10:40:55;;;;;;;3.83;2.30;;;16.90;1.00;;;19.58;48.34;99618.34;5016848;28;130031;-73
2022/05/08 10:43:32;;;;;;;6.07;2.70;;;16.70;1.00;;;19.15;48.40;99614.09;5016881;28;129717;-77
2022/05/08 10:46:23;;;;;;;4.30;2.17;;;16.40;1.00;;;19.15;48.56;99608.59;5002143;28;125580;-77
2022/05/08 10:48:54;;;;;;;3.80;2.60;;;16.50;1.00;;;19.24;47.74;99611.88;4997592;28;124902;-75
2022/05/08 10:51:24;;;;;;;4.78;2.33;;;16.70;1.00;;;19.33;48.19;99609.69;5017247;28;129602;-75
2022/05/08 10:54:09;;;;;;;4.60;2.20;;;16.50;1.00;;;19.59;47.95;99610.88;5016400;28;129514;-77